Time;durP1;ratioP1;P1;durP2;ratioP2;P2;SDS_P1;SDS_P2;PMS_P1;PMS_P2;Temp;Humidity;BMP_temperature;BMP_pressure;BME280_temperature;BME280_humidity;BME280_pressure;Samples;Min_cycle;Max_cycle;Signal;HPM_P1;HPM_P2
2021/01/29 00:00:25;;;;;;;;;80.00;61.00;;;;;-4.89;77.94;99844.62;3725977;38;18298;-73
2021/01/29 00:02:53;;;;;;;;;87.75;64.75;;;;;-4.63;77.91;99877.16;3725917;37;21470;-73
2021/01/29 00:05:27;;;;;;;;;81.25;62.75;;;;;-4.56;77.93;99878.41;3725938;37;18302;-76
2021/01/29 00:07:54;;;;;;;;;84.75;62.50;;;;;-4.48;78.06;99876.09;3725641;38;21473;-73
2021/01/29 00:10:20;;;;;;;;;89.25;63.00;;;;;-4.44;77.82;99874.94;3725752;37;21475;-73
2021/01/29 00:12:48;;;;;;;;;89.00;65.50;;;;;-4.49;77.90;99874.41;3725955;38;21476;-72
2021/01/29 00:15:19;;;;;;;;;83.00;64.25;;;;;-4.75;78.29;99823.41;3725991;38;18303;-74
2021/01/29 00:17:46;;;;;;;;;92.25;65.00;;;;;-4.41;77.90;99872.09;3725857;37;21474;-71
2021/01/29 00:20:15;;;;;;;;;77.00;57.75;;;;;-4.66;77.82;99828.03;3726288;37;21454;-73
2021/01/29 00:22:42;;;;;;;;;69.50;54.25;;;;;-4.48;77.83;99853.19;3726006;38;21466;-73
2021/01/29 00:25:11;;;;;;;;;72.50;52.50;;;;;-4.44;77.67;99848.53;3725938;38;21450;-73
2021/01/29 00:27:37;;;;;;;;;68.50;51.25;;;;;-4.39;77.66;99849.06;3725971;38;21475;-70
2021/01/29 00:30:06;;;;;;;;;62.50;51.50;;;;;-4.23;78.01;99865.53;3725801;37;21439;-73
2021/01/29 00:32:32;;;;;;;;;58.00;46.25;;;;;-4.13;78.24;99868.34;3725863;38;21432;-73
2021/01/29 00:34:59;;;;;;;;;64.00;49.75;;;;;-4.12;77.93;99867.41;3725807;37;21442;-70
2021/01/29 00:37:26;;;;;;;;;63.25;48.75;;;;;-4.09;77.73;99861.91;3726113;38;21449;-73
2021/01/29 00:39:52;;;;;;;;;61.25;50.00;;;;;-4.11;77.76;99866.47;3725443;38;21517;-72
2021/01/29 00:42:18;;;;;;;;;59.00;46.25;;;;;-4.20;77.75;99846.00;3725828;38;21438;-71
2021/01/29 00:44:44;;;;;;;;;59.75;45.00;;;;;-4.04;77.80;99860.62;3725904;37;21435;-74
2021/01/29 00:47:11;;;;;;;;;50.50;44.00;;;;;-4.14;77.69;99830.53;3725584;38;21428;-73
2021/01/29 00:49:37;;;;;;;;;53.75;45.00;;;;;-4.35;77.63;99792.44;3725299;38;21431;-75
2021/01/29 00:52:04;;;;;;;;;59.25;48.25;;;;;-3.93;77.83;99845.81;3725734;38;21420;-75
2021/01/29 00:54:30;;;;;;;;;45.50;34.25;;;;;-3.84;78.06;99846.00;3725691;37;21265;-76
2021/01/29 00:56:56;;;;;;;;;47.75;38.50;;;;;-4.14;77.83;99787.41;3725699;37;21430;-75
2021/01/29 00:59:22;;;;;;;;;54.50;43.25;;;;;-3.84;77.59;99822.22;3724801;38;21409;-74
2021/01/29 01:01:49;;;;;;;;;50.00;43.75;;;;;-3.65;77.58;99829.66;3725080;37;21427;-74
2021/01/29 01:04:16;;;;;;;;;57.00;43.75;;;;;-3.86;77.48;99773.06;3725028;37;21409;-72
2021/01/29 01:06:43;;;;;;;;;44.75;39.25;;;;;-3.56;77.07;99828.97;3725841;38;21405;-73
2021/01/29 01:09:09;;;;;;;;;43.00;35.75;;;;;-3.43;77.53;99819.19;3725705;38;21410;-73
2021/01/29 01:11:35;;;;;;;;;40.00;34.25;;;;;-3.60;77.15;99776.41;3724976;38;21401;-75
2021/01/29 01:14:03;;;;;;;;;50.00;42.50;;;;;-3.34;77.07;99812.38;3725411;37;21397;-74
2021/01/29 01:16:31;;;;;;;;;47.50;35.75;;;;;-3.30;76.97;99805.91;3725450;37;18440;-73
2021/01/29 01:18:58;;;;;;;;;36.50;33.75;;;;;-3.25;76.95;99808.22;3725005;38;21364;-74
2021/01/29 01:21:24;;;;;;;;;48.50;37.75;;;;;-3.19;76.70;99811.25;3725526;38;21389;-73
2021/01/29 01:23:50;;;;;;;;;35.75;31.00;;;;;-3.11;76.36;99800.91;3725557;37;21372;-75
2021/01/29 01:26:17;;;;;;;;;40.50;32.75;;;;;-3.00;76.59;99800.94;3725642;37;21379;-73
2021/01/29 01:28:43;;;;;;;;;29.75;25.00;;;;;-3.21;76.25;99749.66;3725569;38;21351;-74
2021/01/29 01:31:10;;;;;;;;;28.00;25.50;;;;;-2.95;75.99;99786.50;3725261;37;21354;-75
2021/01/29 01:33:36;;;;;;;;;26.75;24.00;;;;;-2.75;75.84;99804.38;3725685;37;21351;-75
2021/01/29 01:36:03;;;;;;;;;25.50;24.50;;;;;-2.67;75.23;99791.38;3726096;38;21438;-75
2021/01/29 01:38:29;;;;;;;;;26.25;23.00;;;;;-2.56;74.87;99794.00;3726348;38;21357;-75
2021/01/29 01:40:55;;;;;;;;;21.75;19.00;;;;;-2.52;74.45;99773.44;3726403;37;21214;-74
2021/01/29 01:43:22;;;;;;;;;21.75;19.75;;;;;-2.34;74.59;99794.03;3726129;38;21225;-74
2021/01/29 01:45:58;;;;;;;;;32.25;21.00;;;;;-2.26;73.77;99788.13;3725307;38;21261;-73
2021/01/29 01:48:33;;;;;;;;;27.25;21.25;;;;;-2.19;73.62;99781.38;3725424;37;21242;-73
2021/01/29 01:51:00;;;;;;;;;23.75;20.50;;;;;-2.17;73.48;99775.97;3725415;37;21227;-72
2021/01/29 01:53:39;;;;;;;;;24.25;21.25;;;;;-2.14;73.14;99781.03;3725498;37;21213;-75
2021/01/29 01:56:44;;;;;;;;;23.25;21.75;;;;;-2.10;73.04;99775.34;3725503;38;21236;-72
2021/01/29 01:59:17;;;;;;;;;26.25;23.50;;;;;-2.10;72.00;99766.56;3725449;37;21319;-72
2021/01/29 02:01:46;;;;;;;;;21.25;19.00;;;;;-2.11;71.79;99765.72;3725804;37;21232;-72
2021/01/29 02:04:15;;;;;;;;;24.50;22.00;;;;;-2.12;72.00;99756.06;3725598;37;21227;-71
2021/01/29 02:07:22;;;;;;;;;23.75;22.00;;;;;-2.13;71.84;99758.84;3725550;38;21214;-71
2021/01/29 02:09:49;;;;;;;;;35.25;29.75;;;;;-2.17;71.43;99749.47;3725669;37;21209;-72
2021/01/29 02:12:19;;;;;;;;;31.25;28.75;;;;;-2.22;71.28;99748.97;3725659;37;21333;-71
2021/01/29 02:14:47;;;;;;;;;42.25;32.50;;;;;-2.25;71.53;99741.28;3725682;38;21289;-76
2021/01/29 02:18:00;;;;;;;;;34.00;29.50;;;;;-2.26;71.77;99734.28;3725577;38;21329;-70
2021/01/29 02:21:08;;;;;;;;;36.25;27.50;;;;;-3.08;71.60;99701.88;3725552;37;21292;-71
2021/01/29 02:24:32;;;;;;;;;35.00;31.00;;;;;-2.42;71.56;99716.94;3725502;38;21321;-72
2021/01/29 02:27:38;;;;;;;;;38.00;30.50;;;;;-2.65;71.46;99662.31;3725212;37;21262;-72
2021/01/29 02:30:46;;;;;;;;;35.00;33.50;;;;;-2.44;71.25;99686.25;3725480;38;21352;-73
2021/01/29 02:33:53;;;;;;;;;33.75;27.25;;;;;-2.28;71.17;99704.41;3725137;38;21311;-71
2021/01/29 02:37:05;;;;;;;;;43.00;32.50;;;;;-2.23;71.46;99723.44;3725543;37;21310;-74
2021/01/29 02:40:20;;;;;;;;;29.00;25.00;;;;;-2.41;71.50;99712.50;3725407;38;21286;-71
2021/01/29 02:43:10;;;;;;;;;40.50;35.75;;;;;-2.27;71.78;99733.44;3725501;37;21257;-74
2021/01/29 02:45:46;;;;;;;;;30.25;25.00;;;;;-2.59;71.43;99688.31;3725208;38;21274;-70
2021/01/29 02:48:45;;;;;;;;;40.75;34.00;;;;;-2.30;71.55;99728.38;3725389;37;21266;-71
2021/01/29 02:51:52;;;;;;;;;37.25;30.75;;;;;-2.53;71.64;99673.72;3725536;37;21564;-69
2021/01/29 02:54:50;;;;;;;;;35.50;31.75;;;;;-2.33;71.79;99718.87;3725520;37;21288;-69
2021/01/29 02:57:57;;;;;;;;;48.00;32.25;;;;;-2.56;71.56;99677.47;3725504;38;21271;-70
2021/01/29 03:00:42;;;;;;;;;35.50;28.75;;;;;-2.34;71.34;99706.59;3725587;37;21243;-70
2021/01/29 03:03:26;;;;;;;;;36.25;31.25;;;;;-2.33;71.73;99721.53;3725467;38;20921;-73
2021/01/29 03:06:01;;;;;;;;;38.00;33.00;;;;;-2.35;71.59;99717.31;3725491;37;21226;-72
2021/01/29 03:08:44;;;;;;;;;35.50;31.25;;;;;-2.66;71.83;99668.59;3725740;37;21257;-74
2021/01/29 03:11:55;;;;;;;;;38.75;32.00;;;;;-2.65;71.93;99653.53;3725383;38;21237;-72
2021/01/29 03:14:45;;;;;;;;;42.50;36.00;;;;;-2.69;71.43;99652.94;3725691;38;21217;-74
2021/01/29 03:17:31;;;;;;;;;31.00;30.75;;;;;-2.36;71.55;99702.38;3726016;37;21237;-73
2021/01/29 03:20:08;;;;;;;;;29.50;28.50;;;;;-2.59;71.63;99655.66;3725724;37;21235;-74
2021/01/29 03:22:43;;;;;;;;;34.25;28.00;;;;;-2.27;72.04;99696.34;3725599;37;21224;-72
2021/01/29 03:25:29;;;;;;;;;37.75;28.75;;;;;-2.22;71.59;99690.66;3725744;37;21201;-72
2021/01/29 03:28:19;;;;;;;;;32.75;27.25;;;;;-2.28;71.52;99669.97;3725614;38;21151;-72
2021/01/29 03:30:50;;;;;;;;;28.25;24.00;;;;;-2.07;70.96;99692.91;3725580;37;21181;-69
2021/01/29 03:33:20;;;;;;;;;27.00;25.75;;;;;-2.03;70.23;99694.34;3725568;38;21045;-73
2021/01/29 03:36:04;;;;;;;;;26.00;22.50;;;;;-2.02;70.39;99677.47;3725645;38;21115;-72
2021/01/29 03:38:44;;;;;;;;;28.00;26.75;;;;;-1.85;70.48;99689.34;3725647;37;21093;-72
2021/01/29 03:41:22;;;;;;;;;29.50;25.50;;;;;-1.83;69.49;99686.56;3725714;38;21093;-71
2021/01/29 03:44:39;;;;;;;;;29.50;23.25;;;;;-1.96;69.59;99662.84;3725445;37;21046;-73
2021/01/29 03:47:14;;;;;;;;;33.75;21.50;;;;;-1.88;68.94;99684.28;3725259;37;21098;-75
2021/01/29 03:50:05;;;;;;;;;32.25;24.50;;;;;-1.95;68.61;99691.06;3725820;37;21136;-73
2021/01/29 03:53:05;;;;;;;;;30.50;23.00;;;;;-2.03;68.21;99686.38;3725943;37;21066;-73
2021/01/29 03:55:56;;;;;;;;;39.25;25.75;;;;;-2.11;68.58;99685.34;3725674;37;21065;-72
2021/01/29 03:58:50;;;;;;;;;34.75;31.50;;;;;-2.09;68.66;99680.75;3725784;38;21190;-73
2021/01/29 04:01:41;;;;;;;;;46.75;37.00;;;;;-2.37;68.47;99637.09;3725200;37;21176;-73
2021/01/29 04:04:33;;;;;;;;;28.00;26.75;;;;;-2.49;68.83;99624.84;3725654;37;21185;-73
2021/01/29 04:07:27;;;;;;;;;30.25;28.00;;;;;-2.17;68.66;99678.72;3725420;37;21012;-72
2021/01/29 04:10:08;;;;;;;;;29.75;24.25;;;;;-2.61;68.36;99609.94;3725845;37;21132;-74
2021/01/29 04:13:12;;;;;;;;;28.75;22.25;;;;;-2.16;68.79;99679.56;3726000;37;21072;-74
2021/01/29 04:15:56;;;;;;;;;33.50;28.00;;;;;-2.17;68.91;99677.88;3730395;38;21074;-76
2021/01/29 04:18:29;;;;;;;;;32.00;26.75;;;;;-2.13;68.52;99684.62;3725861;38;21059;-73
2021/01/29 04:21:19;;;;;;;;;32.75;28.75;;;;;-2.25;69.03;99659.97;3725581;38;21077;-69
2021/01/29 04:24:15;;;;;;;;;29.75;26.75;;;;;-2.43;69.00;99619.03;3725601;38;20889;-71
2021/01/29 04:27:11;;;;;;;;;33.25;25.00;;;;;-2.15;68.99;99678.59;3725822;37;21113;-70
2021/01/29 04:30:12;;;;;;;;;26.75;25.00;;;;;-2.21;68.96;99677.28;3725516;38;21141;-71
2021/01/29 04:32:43;;;;;;;;;39.50;30.25;;;;;-2.19;69.10;99663.91;3725176;38;21046;-71
2021/01/29 04:35:14;;;;;;;;;32.75;29.50;;;;;-2.22;69.27;99659.72;3725496;37;21140;-73
2021/01/29 04:38:06;;;;;;;;;37.00;30.00;;;;;-2.42;69.55;99647.22;3725645;37;21106;-74
2021/01/29 04:40:43;;;;;;;;;33.50;31.50;;;;;-2.33;69.79;99667.69;3725864;37;21135;-73
2021/01/29 04:44:04;;;;;;;;;36.25;31.25;;;;;-2.56;69.96;99626.28;3725489;37;21120;-72
2021/01/29 04:47:07;;;;;;;;;33.25;31.50;;;;;-2.38;70.08;99660.09;3725857;38;21110;-73
2021/01/29 04:50:27;;;;;;;;;40.25;35.75;;;;;-2.67;70.01;99606.00;3725838;37;21113;-76
2021/01/29 04:53:34;;;;;;;;;41.00;37.50;;;;;-2.60;70.22;99607.19;3726945;37;21130;-75
2021/01/29 04:56:28;;;;;;;;;43.50;34.50;;;;;-2.36;70.06;99642.28;3726208;38;21042;-75
2021/01/29 04:59:30;;;;;;;;;36.75;32.75;;;;;-2.21;70.25;99661.41;3725663;38;21096;-73
2021/01/29 05:02:51;;;;;;;;;34.75;29.25;;;;;-2.35;70.52;99624.56;3725509;38;21134;-69
2021/01/29 05:06:02;;;;;;;;;28.00;24.25;;;;;-2.34;70.17;99613.00;3725617;37;21090;-70
2021/01/29 05:09:06;;;;;;;;;32.25;27.50;;;;;-2.18;69.59;99632.00;3725690;38;21047;-67
2021/01/29 05:12:19;;;;;;;;;44.00;33.25;;;;;-2.67;69.90;99580.34;3725543;37;21072;-70
2021/01/29 05:15:11;;;;;;;;;26.25;25.75;;;;;-2.30;69.54;99633.00;3725650;38;21064;-69
2021/01/29 05:18:21;;;;;;;;;37.25;30.25;;;;;-2.16;69.79;99642.47;3725345;37;21052;-72
2021/01/29 05:21:27;;;;;;;;;28.00;25.50;;;;;-2.25;69.65;99648.50;3725556;37;21149;-73
2021/01/29 05:24:36;;;;;;;;;26.50;25.00;;;;;-2.30;70.01;99643.59;3725592;38;21066;-71
2021/01/29 05:27:40;;;;;;;;;34.50;27.00;;;;;-2.52;69.84;99606.53;3725422;38;20961;-73
2021/01/29 05:30:52;;;;;;;;;45.00;33.25;;;;;-2.19;70.10;99646.22;3726552;38;20954;-74
2021/01/29 05:33:51;;;;;;;;;36.00;31.75;;;;;-2.09;70.31;99643.66;3725981;38;21060;-73
2021/01/29 05:36:46;;;;;;;;;26.00;24.75;;;;;-2.06;69.91;99643.37;3726210;37;21025;-74
2021/01/29 05:39:39;;;;;;;;;31.25;26.00;;;;;-2.06;69.93;99651.31;3726033;38;20937;-74
2021/01/29 05:42:39;;;;;;;;;40.00;29.75;;;;;-2.12;70.06;99655.34;3726007;37;20932;-73
2021/01/29 05:45:49;;;;;;;;;40.00;30.00;;;;;-2.15;70.16;99652.09;3725609;37;20969;-74
2021/01/29 05:48:57;;;;;;;;;80.75;65.00;;;;;-2.25;70.26;99622.00;3725208;37;20945;-76
2021/01/29 05:52:17;;;;;;;;;34.75;31.00;;;;;-2.21;70.31;99616.34;3725984;37;21124;-72
2021/01/29 05:55:26;;;;;;;;;30.00;25.50;;;;;-2.22;70.07;99613.81;3725479;37;21037;-82
2021/01/29 05:58:30;;;;;;;;;36.00;33.75;;;;;-1.91;69.91;99663.31;3726300;37;20919;-70
2021/01/29 06:01:40;;;;;;;;;97.75;79.25;;;;;-2.20;70.17;99620.66;3726270;37;21043;-70
2021/01/29 06:04:43;;;;;;;;;52.75;41.50;;;;;-2.01;70.27;99654.44;3726563;37;17856;-70
2021/01/29 06:08:10;;;;;;;;;36.00;28.75;;;;;-2.41;70.50;99591.47;3725793;37;21035;-79
2021/01/29 06:11:18;;;;;;;;;38.00;30.50;;;;;-1.98;70.75;99650.69;3726590;37;21020;-72
2021/01/29 06:14:30;;;;;;;;;34.50;29.75;;;;;-2.15;70.93;99695.34;3725767;38;21001;-74
2021/01/29 06:17:38;;;;;;;;;37.00;32.25;;;;;-1.89;70.63;99663.19;3725846;37;21013;-70
2021/01/29 06:20:46;;;;;;;;;55.25;42.50;;;;;-1.86;70.88;99661.12;3725703;37;20992;-69
2021/01/29 06:23:36;;;;;;;;;47.00;39.00;;;;;-1.77;70.92;99668.34;3725166;37;21022;-69
2021/01/29 06:26:39;;;;;;;;;32.25;30.50;;;;;-1.76;70.90;99667.38;3725711;37;20987;-74
2021/01/29 06:29:43;;;;;;;;;34.75;31.50;;;;;-1.70;70.61;99666.03;3725717;38;20990;-75
2021/01/29 06:33:03;;;;;;;;;34.50;31.25;;;;;-1.64;70.71;99664.66;3725813;38;20972;-72
2021/01/29 06:36:13;;;;;;;;;39.50;35.75;;;;;-1.80;70.60;99623.50;3729181;37;21011;-71
2021/01/29 06:39:23;;;;;;;;;33.25;28.00;;;;;-1.45;70.93;99662.97;3725869;37;20961;-77
2021/01/29 06:42:22;;;;;;;;;42.00;35.25;;;;;-1.40;70.18;99665.25;3725785;38;20979;-66
2021/01/29 06:46:00;;;;;;;;;34.00;30.00;;;;;-1.58;70.01;99629.66;3725789;38;20959;-68
2021/01/29 06:48:57;;;;;;;;;44.75;37.75;;;;;-1.42;69.84;99649.44;3725929;38;20874;-70
2021/01/29 06:52:13;;;;;;;;;41.25;40.25;;;;;-1.26;70.31;99666.72;3726720;38;20995;-65
2021/01/29 06:55:20;;;;;;;;;47.50;39.75;;;;;-1.10;69.85;99675.09;3726808;38;20981;-68
2021/01/29 06:58:25;;;;;;;;;51.75;43.00;;;;;-1.01;69.63;99680.41;3725618;38;20979;-67
2021/01/29 07:01:21;;;;;;;;;45.00;39.25;;;;;-0.95;69.42;99665.78;3725197;37;20954;-66
2021/01/29 07:04:25;;;;;;;;;42.75;37.50;;;;;-0.95;69.67;99649.84;3725226;38;20947;-66
2021/01/29 07:07:23;;;;;;;;;43.75;39.75;;;;;-0.95;69.42;99628.59;3725401;37;20956;-64
2021/01/29 07:10:35;;;;;;;;;51.75;43.25;;;;;-0.91;69.57;99605.25;3725989;37;20896;-67
2021/01/29 07:13:42;;;;;;;;;65.50;49.50;;;;;-0.52;69.63;99646.91;3725597;38;20946;-67
2021/01/29 07:16:46;;;;;;;;;66.25;49.75;;;;;-0.52;68.88;99641.59;3725937;37;20940;-65
2021/01/29 07:19:31;;;;;;;;;47.75;34.50;;;;;-0.65;68.28;99651.66;3725400;37;20948;-68
2021/01/29 07:22:43;;;;;;;;;49.50;41.25;;;;;-0.51;68.19;99661.88;3725598;38;20935;-67
2021/01/29 07:25:34;;;;;;;;;49.00;38.75;;;;;-0.36;68.70;99654.38;3725823;37;20922;-67
2021/01/29 07:28:18;;;;;;;;;52.75;41.75;;;;;-0.41;67.98;99627.34;3725339;38;20927;-66
2021/01/29 07:31:31;;;;;;;;;49.25;43.25;;;;;-0.57;67.73;99589.84;3725223;37;20897;-67
2021/01/29 07:34:09;;;;;;;;;50.25;42.00;;;;;-0.05;67.62;99640.03;3725488;38;20907;-66
2021/01/29 07:37:26;;;;;;;;;63.50;46.50;;;;;0.22;67.79;99633.16;3725448;37;20887;-66
2021/01/29 07:40:39;;;;;;;;;53.00;41.75;;;;;0.50;67.13;99639.44;3725320;38;20891;-66
2021/01/29 07:43:46;;;;;;;;;50.75;39.75;;;;;0.72;66.70;99633.78;3725707;37;20879;-66
2021/01/29 07:46:28;;;;;;;;;55.50;45.50;;;;;0.84;65.76;99629.97;3724902;37;21922;-67
2021/01/29 07:49:32;;;;;;;;;56.75;42.00;;;;;1.04;65.58;99635.25;3725231;38;20902;-66
2021/01/29 07:52:38;;;;;;;;;66.00;50.00;;;;;1.32;65.41;99637.78;3725305;37;20940;-66
2021/01/29 07:55:25;;;;;;;;;65.25;50.50;;;;;1.44;64.44;99618.94;3725570;37;21894;-69
2021/01/29 07:58:17;;;;;;;;;58.50;46.25;;;;;1.64;63.33;99626.66;3725648;38;22000;-68
2021/01/29 08:01:24;;;;;;;;;62.00;49.00;;;;;1.74;62.49;99623.09;3725390;37;20897;-68
2021/01/29 08:04:46;;;;;;;;;47.75;37.00;;;;;1.90;61.88;99634.78;3725404;37;21896;-68
2021/01/29 08:07:37;;;;;;;;;54.50;44.25;;;;;-1.34;61.23;99139.25;3725248;37;21893;-67
2021/01/29 08:10:24;;;;;;;;;52.25;41.00;;;;;1.87;60.87;99607.56;3725264;37;20887;-69
2021/01/29 08:13:09;;;;;;;;;48.25;41.50;;;;;1.96;59.64;99626.19;3725491;37;21875;-71
2021/01/29 08:16:16;;;;;;;;;51.00;41.50;;;;;2.04;60.29;99612.06;3727720;37;21873;-70
2021/01/29 08:19:06;;;;;;;;;50.00;40.25;;;;;1.85;59.86;99564.19;3725822;38;21876;-69
2021/01/29 08:22:30;;;;;;;;;45.00;40.00;;;;;2.25;59.56;99606.41;3725522;37;21872;-70
2021/01/29 08:25:34;;;;;;;;;49.75;38.25;;;;;2.39;58.71;99624.56;3725480;37;21873;-69
2021/01/29 08:28:38;;;;;;;;;57.25;42.00;;;;;2.53;58.96;99604.47;3725752;37;21873;-70
2021/01/29 08:31:37;;;;;;;;;42.75;35.50;;;;;2.73;58.28;99618.44;3725684;37;21916;-66
2021/01/29 08:34:36;;;;;;;;;39.75;35.50;;;;;2.84;57.84;99624.38;3725849;38;21814;-68
2021/01/29 08:37:33;;;;;;;;;50.00;39.75;;;;;2.86;56.94;99614.38;3725393;37;21734;-69
2021/01/29 08:40:26;;;;;;;;;51.25;39.75;;;;;2.88;57.16;99609.72;3725549;38;21768;-69
2021/01/29 08:43:30;;;;;;;;;44.25;36.50;;;;;3.05;56.60;99616.00;3725513;37;21751;-69
2021/01/29 08:46:23;;;;;;;;;38.75;36.00;;;;;3.10;56.27;99580.78;3727499;38;21735;-71
2021/01/29 08:49:30;;;;;;;;;29.00;27.00;;;;;3.51;55.16;99622.72;3725887;38;21677;-69
2021/01/29 08:52:24;;;;;;;;;27.75;24.25;;;;;3.38;54.37;99565.31;3727573;37;21737;-69
2021/01/29 08:55:33;;;;;;;;;35.25;26.75;;;;;3.80;53.75;99610.75;3726508;38;21668;-71
2021/01/29 08:58:30;;;;;;;;;27.25;26.00;;;;;3.94;53.12;99610.13;3725850;37;21716;-69
2021/01/29 09:01:08;;;;;;;;;27.50;25.50;;;;;3.96;51.82;99600.91;3725839;37;21713;-70
2021/01/29 09:03:47;;;;;;;;;32.75;29.50;;;;;3.95;52.66;99601.94;3725909;37;21673;-70
2021/01/29 09:06:18;;;;;;;;;28.25;23.75;;;;;4.05;52.13;99595.59;3725997;37;21448;-74
2021/01/29 09:08:45;;;;;;;;;31.75;23.00;;;;;4.15;51.23;99594.44;3725750;37;21697;-69
2021/01/29 09:11:22;;;;;;;;;25.50;24.00;;;;;4.24;51.52;99592.56;3725524;37;21720;-72
2021/01/29 09:14:00;;;;;;;;;32.25;26.00;;;;;4.31;50.99;99583.69;3725690;38;21663;-70
2021/01/29 09:16:33;;;;;;;;;38.25;32.50;;;;;4.37;51.11;99563.44;3725562;38;21634;-68
2021/01/29 09:19:12;;;;;;;;;27.25;23.00;;;;;4.54;50.42;99566.94;3725449;38;21642;-70
2021/01/29 09:22:18;;;;;;;;;31.75;26.00;;;;;4.56;50.38;99568.47;3725431;37;21647;-68
2021/01/29 09:25:17;;;;;;;;;30.75;26.25;;;;;4.63;49.85;99565.94;3725384;38;21684;-67
2021/01/29 09:28:15;;;;;;;;;32.50;28.75;;;;;4.64;49.50;99551.53;3725503;37;21638;-70
2021/01/29 09:31:10;;;;;;;;;38.50;29.25;;;;;4.57;49.26;99529.94;3725509;37;21658;-67
2021/01/29 09:33:47;;;;;;;;;28.25;23.25;;;;;4.69;49.56;99567.06;3725539;37;21645;-70
2021/01/29 09:36:27;;;;;;;;;31.75;26.25;;;;;4.73;49.91;99561.19;3725615;37;21638;-68
2021/01/29 09:39:09;;;;;;;;;36.25;28.00;;;;;4.76;49.49;99565.38;3725725;37;21635;-71
2021/01/29 09:42:16;;;;;;;;;31.50;27.25;;;;;4.76;49.49;99555.50;3725227;37;21919;-71
2021/01/29 09:45:08;;;;;;;;;33.25;28.50;;;;;4.90;49.79;99553.97;3725214;37;21608;-73
2021/01/29 09:47:40;;;;;;;;;28.00;21.75;;;;;4.97;48.88;99557.63;3725571;38;21654;-70
2021/01/29 09:50:16;;;;;;;;;26.00;22.00;;;;;4.86;48.06;99549.97;3725827;38;21695;-73
2021/01/29 09:53:26;;;;;;;;;36.50;33.50;;;;;5.06;49.13;99555.78;3725926;37;21632;-71
2021/01/29 09:56:01;;;;;;;;;36.25;28.25;;;;;5.16;49.05;99540.31;3725873;38;21646;-73
2021/01/29 09:59:08;;;;;;;;;30.00;27.25;;;;;4.15;48.98;99349.91;3726002;38;21693;-72
2021/01/29 10:01:38;;;;;;;;;27.75;24.50;;;;;5.52;47.51;99532.59;3725518;38;21622;-69
2021/01/29 10:04:15;;;;;;;;;30.75;26.25;;;;;5.54;47.12;99554.72;3725563;37;21734;-70
2021/01/29 10:07:10;;;;;;;;;45.50;38.25;;;;;5.45;47.51;99527.09;3725504;37;21621;-69
2021/01/29 10:09:41;;;;;;;;;42.75;34.25;;;;;5.69;46.85;99544.91;3725676;37;21703;-69
2021/01/29 10:12:17;;;;;;;;;43.25;34.25;;;;;5.70;47.33;99543.06;3725397;37;21641;-71
2021/01/29 10:15:12;;;;;;;;;34.00;29.00;;;;;5.69;48.03;99544.91;3725135;37;21692;-72
2021/01/29 10:17:55;;;;;;;;;30.00;25.75;;;;;5.77;47.12;99538.63;3725515;38;21600;-72
2021/01/29 10:20:27;;;;;;;;;27.75;25.25;;;;;5.72;46.78;99530.28;3725837;38;21680;-70
2021/01/29 10:23:38;;;;;;;;;31.00;27.00;;;;;5.54;46.92;99501.03;3725310;38;21580;-69
2021/01/29 10:26:35;;;;;;;;;48.75;38.75;;;;;5.68;47.57;99540.53;3725774;37;21589;-69
2021/01/29 10:29:16;;;;;;;;;38.75;32.00;;;;;5.71;47.68;99540.19;3725653;38;21583;-73
2021/01/29 10:31:51;;;;;;;;;30.75;28.75;;;;;5.78;47.29;99541.13;3725734;38;21652;-72
2021/01/29 10:34:33;;;;;;;;;27.00;23.50;;;;;5.89;47.51;99542.59;3725733;37;21593;-70
2021/01/29 10:37:32;;;;;;;;;22.50;20.75;;;;;5.86;47.09;99529.50;3725584;37;21542;-67
2021/01/29 10:40:21;;;;;;;;;29.00;24.75;;;;;5.80;47.38;99530.22;3725519;38;21565;-71
2021/01/29 10:43:19;;;;;;;;;30.25;27.00;;;;;5.51;47.14;99478.06;3725614;38;21575;-69
2021/01/29 10:46:16;;;;;;;;;32.00;30.00;;;;;5.93;47.09;99527.81;3725495;37;21548;-69
2021/01/29 10:49:34;;;;;;;;;30.25;27.50;;;;;6.06;47.25;99529.91;3725766;37;21543;-67
2021/01/29 10:52:15;;;;;;;;;32.50;30.25;;;;;5.92;47.73;99516.22;3725161;37;21534;-70
2021/01/29 10:54:42;;;;;;;;;28.00;27.50;;;;;5.82;47.13;99490.59;3725821;38;21536;-72
2021/01/29 10:57:34;;;;;;;;;34.75;29.75;;;;;5.83;47.07;99487.72;3725916;37;21536;-71
2021/01/29 11:00:08;;;;;;;;;36.50;30.75;;;;;6.23;46.97;99499.19;3726050;37;21522;-71
2021/01/29 11:02:44;;;;;;;;;32.00;29.75;;;;;6.39;46.34;99498.19;3726085;38;21525;-69
2021/01/29 11:05:21;;;;;;;;;33.25;28.25;;;;;6.53;46.74;99492.84;3727527;37;21497;-69
2021/01/29 11:07:51;;;;;;;;;25.25;22.75;;;;;6.34;46.91;99488.00;3725680;37;21513;-68
2021/01/29 11:10:33;;;;;;;;;38.00;30.25;;;;;6.21;46.64;99464.47;3725858;38;21729;-70
2021/01/29 11:13:26;;;;;;;;;34.00;30.50;;;;;6.29;46.73;99464.34;3725715;37;21562;-75
2021/01/29 11:16:01;;;;;;;;;27.25;26.25;;;;;6.39;46.66;99458.72;3726076;37;21490;-71
2021/01/29 11:18:37;;;;;;;;;34.00;31.50;;;;;6.48;46.50;99460.31;3726842;37;21479;-74
2021/01/29 11:21:47;;;;;;;;;30.25;28.25;;;;;6.62;46.32;99455.97;3726182;38;21538;-71
2021/01/29 11:24:45;;;;;;;;;28.75;24.50;;;;;6.41;46.13;99434.34;3728989;37;21486;-73
2021/01/29 11:28:01;;;;;;;;;24.25;23.75;;;;;6.68;45.98;99459.75;3726069;38;21482;-71
2021/01/29 11:30:44;;;;;;;;;26.50;24.00;;;;;6.84;45.94;99448.78;3725465;37;21490;-69
2021/01/29 11:33:11;;;;;;;;;38.25;30.50;;;;;6.85;45.30;99448.59;3725284;38;21317;-68
2021/01/29 11:36:06;;;;;;;;;14.50;11.50;;;;;6.91;45.59;99453.25;3725426;37;21458;-68
2021/01/29 11:39:10;;;;;;;;;32.50;28.25;;;;;6.91;45.22;99455.09;3725246;38;21471;-68
2021/01/29 11:41:50;;;;;;;;;30.75;25.00;;;;;6.89;45.30;99462.50;3725179;38;21542;-67
2021/01/29 11:45:01;;;;;;;;;28.75;22.75;;;;;6.84;45.65;99438.03;3725365;37;21453;-68
2021/01/29 11:48:01;;;;;;;;;27.75;26.50;;;;;7.02;45.24;99427.72;3725557;38;21494;-70
2021/01/29 11:51:11;;;;;;;;;33.50;27.00;;;;;7.04;45.34;99396.09;3725624;37;21470;-71
2021/01/29 11:54:10;;;;;;;;;30.00;25.00;;;;;6.85;45.20;99341.03;3725444;37;21456;-74
2021/01/29 11:57:11;;;;;;;;;28.00;23.75;;;;;7.08;45.44;99399.22;3725951;37;21426;-72
2021/01/29 12:00:23;;;;;;;;;26.00;24.50;;;;;6.93;45.93;99396.56;3725887;38;21457;-73
2021/01/29 12:03:29;;;;;;;;;26.00;21.50;;;;;6.91;46.15;99412.06;3725958;37;21342;-70
2021/01/29 12:06:17;;;;;;;;;36.00;28.75;;;;;6.98;46.29;99408.44;3725894;37;21448;-70
2021/01/29 12:09:06;;;;;;;;;20.00;18.75;;;;;6.77;45.98;99397.63;3725887;37;21422;-73
2021/01/29 12:11:50;;;;;;;;;20.00;16.25;;;;;6.80;46.06;99401.78;3725578;38;21426;-69
2021/01/29 12:14:47;;;;;;;;;23.50;21.75;;;;;6.97;46.32;99406.75;3725342;38;21404;-67
2021/01/29 12:17:14;;;;;;;;;21.75;20.75;;;;;7.13;45.75;99403.03;3725908;37;21406;-69
2021/01/29 12:19:44;;;;;;;;;22.50;20.25;;;;;7.28;45.39;99402.97;3725728;37;21418;-73
2021/01/29 12:22:27;;;;;;;;;31.00;28.50;;;;;7.47;45.57;99402.34;3724142;38;21404;-71
2021/01/29 12:25:30;;;;;;;;;31.25;29.25;;;;;7.70;45.35;99399.47;3725444;38;21402;-70
2021/01/29 12:28:41;;;;;;;;;22.25;21.00;;;;;7.74;44.79;99399.91;3725663;37;21423;-70
2021/01/29 12:32:05;;;;;;;;;18.00;17.25;;;;;7.41;45.45;99394.19;3725829;37;21417;-73
2021/01/29 12:35:09;;;;;;;;;17.50;15.75;;;;;7.60;45.10;99396.25;3725492;38;21404;-71
2021/01/29 12:37:38;;;;;;;;;25.25;16.75;;;;;7.60;44.68;99382.78;3725643;38;21404;-72
2021/01/29 12:40:17;;;;;;;;;20.00;17.00;;;;;7.74;44.35;99407.97;3725536;38;21444;-70
2021/01/29 12:42:56;;;;;;;;;21.00;20.00;;;;;7.51;44.37;99368.63;3725726;37;21400;-72
2021/01/29 12:45:35;;;;;;;;;20.00;15.25;;;;;7.39;44.85;99372.84;3725686;37;21436;-73
2021/01/29 12:48:30;;;;;;;;;17.75;15.00;;;;;7.63;45.16;99395.88;3725912;38;21418;-70
2021/01/29 12:51:36;;;;;;;;;23.00;20.50;;;;;7.75;45.09;99407.78;3725753;38;21415;-73
2021/01/29 12:54:17;;;;;;;;;22.75;18.00;;;;;7.76;44.53;99412.16;3725822;38;21400;-76
2021/01/29 12:57:05;;;;;;;;;16.75;13.00;;;;;7.32;45.03;99407.78;3726150;37;21380;-74
2021/01/29 12:59:49;;;;;;;;;27.25;24.00;;;;;7.26;45.62;99411.25;3725935;37;21397;-72
2021/01/29 13:02:48;;;;;;;;;13.50;11.00;;;;;7.09;45.00;99372.12;3726260;37;21356;-71